createdAt,value
2018-05-23T00:01:07.517Z,61.00
2018-05-23T00:06:10.260Z,60.90
2018-05-23T00:11:13.273Z,61.10
2018-05-23T00:16:15.916Z,61.10
2018-05-23T00:21:19.054Z,62.10
2018-05-23T00:26:22.092Z,61.80
2018-05-23T00:31:25.090Z,61.80
2018-05-23T00:36:27.745Z,62.20
2018-05-23T00:41:30.844Z,62.80
2018-05-23T00:46:33.849Z,62.50
2018-05-23T00:51:37.420Z,62.90
2018-05-23T00:56:40.320Z,62.80
2018-05-23T01:07:44.029Z,63.30
2018-05-23T01:12:47.461Z,64.00
2018-05-23T01:17:50.354Z,64.50
2018-05-23T01:22:53.029Z,65.00
2018-05-23T01:27:56.429Z,64.80
2018-05-23T01:33:00.111Z,65.10
2018-05-23T01:38:02.921Z,65.00
2018-05-23T01:43:06.545Z,65.30
2018-05-23T01:48:09.473Z,64.80
2018-05-23T01:53:12.968Z,65.40
2018-05-23T01:58:17.227Z,65.50
2018-05-23T02:03:19.835Z,65.40
2018-05-23T02:08:23.093Z,65.40
2018-05-23T02:13:26.410Z,65.90
2018-05-23T02:18:30.813Z,65.80
2018-05-23T02:23:33.522Z,65.90
2018-05-23T02:28:36.423Z,66.00
2018-05-23T02:33:39.320Z,65.90
2018-05-23T02:38:43.238Z,66.30
2018-05-23T02:43:46.164Z,66.30
2018-05-23T02:48:48.989Z,66.00
2018-05-23T02:53:52.318Z,66.60
2018-05-23T02:58:55.170Z,66.80
2018-05-23T03:03:58.548Z,67.40
2018-05-23T03:09:01.436Z,67.10
2018-05-23T03:14:04.285Z,66.60
2018-05-23T03:19:07.409Z,66.10
2018-05-23T03:24:10.442Z,66.70
2018-05-23T03:29:13.265Z,66.80
2018-05-23T03:34:16.227Z,66.70
2018-05-23T03:39:19.497Z,67.40
2018-05-23T03:44:23.704Z,67.30
2018-05-23T03:49:26.448Z,67.50
2018-05-23T03:54:29.517Z,67.90
2018-05-23T03:59:47.952Z,67.90
2018-05-23T04:05:02.957Z,67.90
2018-05-23T04:10:06.258Z,68.00
2018-05-23T04:15:09.556Z,68.10
2018-05-23T04:20:12.876Z,68.30
2018-05-23T04:25:15.739Z,68.00
2018-05-23T04:30:18.604Z,68.30
2018-05-23T04:35:21.428Z,68.40
2018-05-23T04:40:24.365Z,68.40
2018-05-23T04:45:27.046Z,68.00
2018-05-23T04:50:29.754Z,68.10
2018-05-23T04:55:34.243Z,68.50
2018-05-23T05:00:37.410Z,68.50
2018-05-23T05:05:40.647Z,68.30
2018-05-23T05:10:48.755Z,68.80
2018-05-23T05:15:54.239Z,69.00
2018-05-23T05:21:00.008Z,69.10
2018-05-23T05:26:06.321Z,68.90
2018-05-23T05:31:16.450Z,69.20
2018-05-23T05:36:22.151Z,69.10
2018-05-23T05:46:36.631Z,68.90
2018-05-23T05:51:44.289Z,69.60
2018-05-23T05:56:48.708Z,69.70
2018-05-23T06:01:54.336Z,70.40
2018-05-23T06:06:57.519Z,70.00
2018-05-23T06:12:02.239Z,70.20
2018-05-23T06:17:06.319Z,70.20
2018-05-23T06:22:20.629Z,69.50
2018-05-23T06:27:25.474Z,69.80
2018-05-23T06:32:33.860Z,70.10
2018-05-23T06:37:54.500Z,69.80
2018-05-23T06:43:00.165Z,69.80
2018-05-23T06:48:05.439Z,70.30
2018-05-23T06:53:14.281Z,69.60
2018-05-23T07:03:29.799Z,69.40
2018-05-23T07:08:40.897Z,69.20
2018-05-23T07:13:45.728Z,69.00
2018-05-23T07:18:57.065Z,69.00
2018-05-23T07:29:14.029Z,68.80
2018-05-23T07:39:32.952Z,68.40
2018-05-23T07:44:38.598Z,68.80
2018-05-23T07:49:46.214Z,68.20
2018-05-23T07:54:48.743Z,68.00
2018-05-23T07:59:51.270Z,67.80
2018-05-23T08:04:53.806Z,67.40
2018-05-23T08:09:56.327Z,67.00
2018-05-23T08:14:58.853Z,66.80
2018-05-23T08:20:01.378Z,66.60
2018-05-23T08:25:03.923Z,66.50
2018-05-23T08:30:06.437Z,66.90
2018-05-23T08:35:08.956Z,66.80
2018-05-23T08:40:11.498Z,67.00
2018-05-23T08:45:14.857Z,66.10
2018-05-23T08:50:17.318Z,65.90
2018-05-23T08:55:19.850Z,66.40
2018-05-23T09:00:22.364Z,66.40
2018-05-23T09:05:24.890Z,65.30
2018-05-23T09:15:43.492Z,64.70
2018-05-23T09:25:59.093Z,61.10
2018-05-23T09:31:10.009Z,60.60
2018-05-23T09:36:13.692Z,59.20
2018-05-23T09:46:39.959Z,59.40
2018-05-23T09:56:52.575Z,55.90
2018-05-23T10:17:31.322Z,55.20
2018-05-23T10:27:51.164Z,54.00
2018-05-23T10:38:10.143Z,49.00
2018-05-23T10:43:12.684Z,50.70
2018-05-23T10:48:29.278Z,50.90
2018-05-23T10:53:44.874Z,50.20
2018-05-23T10:58:53.281Z,50.20
2018-05-23T11:03:59.638Z,49.20
2018-05-23T11:09:06.587Z,49.30
2018-05-23T11:24:34.353Z,47.80
2018-05-23T11:29:40.236Z,48.30
2018-05-23T11:34:47.735Z,46.80
2018-05-23T11:39:51.784Z,46.40
2018-05-23T11:45:02.037Z,45.60
2018-05-23T11:50:07.461Z,46.10
2018-05-23T11:55:20.595Z,46.20
2018-05-23T12:00:29.398Z,46.00
2018-05-23T12:05:31.931Z,44.40
2018-05-23T12:10:35.340Z,45.10
2018-05-23T12:15:37.795Z,45.00
2018-05-23T12:20:40.329Z,42.80
2018-05-23T12:25:45.604Z,44.10
2018-05-23T12:36:02.356Z,42.30
2018-05-23T12:41:07.390Z,40.80
2018-05-23T12:46:13.508Z,40.90
2018-05-23T12:51:17.787Z,41.40
2018-05-23T12:56:23.802Z,40.90
2018-05-23T13:06:38.113Z,41.10
2018-05-23T13:11:43.880Z,41.20
2018-05-23T13:16:47.578Z,40.60
2018-05-23T13:21:50.929Z,40.20
2018-05-23T13:26:56.405Z,40.30
2018-05-23T13:32:00.385Z,40.50
2018-05-23T13:37:05.718Z,40.20
2018-05-23T13:42:10.980Z,40.10
2018-05-23T13:47:15.948Z,40.20
2018-05-23T13:52:21.133Z,39.90
2018-05-23T13:57:27.494Z,40.10
2018-05-23T14:02:36.728Z,40.80
2018-05-23T14:07:43.939Z,40.90
2018-05-23T14:17:59.821Z,40.00
2018-05-23T14:23:08.609Z,40.80
2018-05-23T14:28:13.960Z,40.80
2018-05-23T14:33:18.536Z,40.20
2018-05-23T14:38:22.048Z,40.60
2018-05-23T14:43:24.621Z,39.20
2018-05-23T14:48:27.528Z,40.40
2018-05-23T14:53:32.588Z,40.40
2018-05-23T14:58:37.460Z,39.70
2018-05-23T15:03:41.085Z,40.10
2018-05-23T15:08:45.721Z,42.40
2018-05-23T15:13:50.941Z,42.90
2018-05-23T15:18:54.908Z,43.50
2018-05-23T15:23:59.677Z,43.70
2018-05-23T15:29:05.853Z,43.50
2018-05-23T15:34:08.954Z,43.60
2018-05-23T15:39:13.001Z,43.80
2018-05-23T15:44:17.360Z,44.10
2018-05-23T15:49:24.427Z,45.40
2018-05-23T15:54:28.005Z,44.40
2018-05-23T15:59:36.310Z,44.90
2018-05-23T16:04:41.175Z,44.90
2018-05-23T16:09:45.208Z,44.50
2018-05-23T16:14:50.244Z,44.40
2018-05-23T16:19:55.021Z,44.80
2018-05-23T16:24:59.331Z,45.30
2018-05-23T16:30:06.247Z,46.00
2018-05-23T16:35:11.236Z,46.40
2018-05-23T16:40:16.551Z,45.80
2018-05-23T16:45:24.846Z,46.20
2018-05-23T16:50:27.532Z,46.40
2018-05-23T16:55:30.170Z,47.40
2018-05-23T17:00:33.077Z,49.80
2018-05-23T17:05:36.373Z,50.40
2018-05-23T17:10:39.003Z,51.10
2018-05-23T17:15:41.633Z,51.10
2018-05-23T17:20:44.328Z,50.80
2018-05-23T17:25:47.223Z,50.60
2018-05-23T17:30:49.885Z,51.00
2018-05-23T17:35:53.311Z,51.10
2018-05-23T17:40:56.592Z,51.90
2018-05-23T17:45:59.105Z,51.80
2018-05-23T17:51:01.648Z,52.00
2018-05-23T17:56:04.165Z,52.20
2018-05-23T18:01:06.751Z,52.80
2018-05-23T18:06:09.371Z,52.20
2018-05-23T18:11:11.934Z,52.90
2018-05-23T18:16:14.383Z,53.50
2018-05-23T18:21:16.949Z,53.80
2018-05-23T18:26:19.464Z,54.80
2018-05-23T18:31:22.037Z,55.70
2018-05-23T18:36:24.579Z,56.30
2018-05-23T18:41:27.201Z,56.70
2018-05-23T18:46:29.740Z,57.30
2018-05-23T18:51:32.661Z,57.40
2018-05-23T18:56:35.760Z,57.70
2018-05-23T19:01:38.769Z,57.90
2018-05-23T19:06:41.773Z,57.80
2018-05-23T19:11:44.380Z,57.90
2018-05-23T19:16:47.701Z,57.80
2018-05-23T19:21:50.225Z,57.90
2018-05-23T19:26:52.844Z,58.00
2018-05-23T19:31:55.599Z,58.00
2018-05-23T19:36:58.257Z,58.30
2018-05-23T19:42:08.222Z,58.50
2018-05-23T19:47:11.583Z,58.80
2018-05-23T19:52:14.141Z,58.70
2018-05-23T19:57:16.770Z,59.00
2018-05-23T20:02:19.392Z,59.40
2018-05-23T20:07:22.005Z,59.70
2018-05-23T20:12:24.613Z,60.00
2018-05-23T20:17:27.184Z,60.40
2018-05-23T20:22:29.761Z,60.60
2018-05-23T20:27:32.311Z,60.90
2018-05-23T20:32:34.904Z,61.20
2018-05-23T20:37:37.503Z,61.60
2018-05-23T20:42:40.144Z,61.80
2018-05-23T20:47:43.615Z,62.20
2018-05-23T20:52:46.209Z,62.10
2018-05-23T20:57:48.766Z,62.40
2018-05-23T21:02:52.290Z,64.10
2018-05-23T21:07:55.014Z,64.00
2018-05-23T21:12:58.172Z,63.20
2018-05-23T21:18:00.718Z,64.60
2018-05-23T21:23:03.881Z,64.70
2018-05-23T21:28:06.432Z,64.20
2018-05-23T21:33:08.992Z,65.10
2018-05-23T21:38:11.613Z,64.90
2018-05-23T21:43:15.052Z,66.00
2018-05-23T21:48:17.863Z,65.90
2018-05-23T21:53:20.461Z,66.90
2018-05-23T21:58:23.027Z,66.60
2018-05-23T22:03:25.579Z,66.80
2018-05-23T22:08:29.576Z,67.40
2018-05-23T22:13:32.916Z,67.80
2018-05-23T22:18:35.630Z,67.80
2018-05-23T22:23:39.093Z,66.70
2018-05-23T22:28:41.670Z,67.10
2018-05-23T22:33:44.233Z,67.00
2018-05-23T22:38:47.557Z,68.30
2018-05-23T22:43:50.233Z,68.20
2018-05-23T22:48:53.559Z,68.30
2018-05-23T22:53:56.234Z,68.20
2018-05-23T22:58:59.089Z,68.00
2018-05-23T23:04:01.720Z,68.60
2018-05-23T23:09:04.308Z,68.50
2018-05-23T23:14:06.884Z,68.30
2018-05-23T23:19:09.451Z,68.50
2018-05-23T23:24:12.071Z,68.80
2018-05-23T23:29:14.712Z,68.70
2018-05-23T23:34:17.964Z,69.20
2018-05-23T23:39:20.524Z,69.00
2018-05-23T23:44:23.119Z,69.70
2018-05-23T23:49:25.721Z,69.40
2018-05-23T23:54:29.089Z,69.40
2018-05-23T23:59:31.686Z,69.30
